createdAt,value
2023-02-19T00:01:34.015Z,7.91
2023-02-19T00:04:06.198Z,7.96
2023-02-19T00:06:35.338Z,7.96
2023-02-19T00:09:03.829Z,7.92
2023-02-19T00:11:33.819Z,7.94
2023-02-19T00:14:03.602Z,7.94
2023-02-19T00:16:33.165Z,7.96
2023-02-19T00:19:04.552Z,8.08
2023-02-19T00:21:32.565Z,8.13
2023-02-19T00:24:03.095Z,8.04
2023-02-19T00:26:31.517Z,8.03
2023-02-19T00:29:01.281Z,7.89
2023-02-19T00:31:32.637Z,7.88
2023-02-19T00:34:04.388Z,7.84
2023-02-19T00:36:33.570Z,7.91
2023-02-19T00:39:01.713Z,7.96
2023-02-19T00:41:29.392Z,8.15
2023-02-19T00:43:59.728Z,8.08
2023-02-19T00:46:29.104Z,7.98
2023-02-19T00:48:57.922Z,8.17
2023-02-19T00:51:29.779Z,8.21
2023-02-19T00:53:58.250Z,8.15
2023-02-19T00:56:26.137Z,8.26
2023-02-19T00:58:54.469Z,8.31
2023-02-19T01:01:25.172Z,8.45
2023-02-19T01:03:53.194Z,8.54
2023-02-19T01:06:22.019Z,8.54
2023-02-19T01:08:51.779Z,8.48
2023-02-19T01:11:20.114Z,8.28
2023-02-19T01:13:48.574Z,8.21
2023-02-19T01:16:18.793Z,8.12
2023-02-19T01:18:46.877Z,8.01
2023-02-19T01:21:18.011Z,7.92
2023-02-19T01:23:45.794Z,7.68
2023-02-19T01:26:17.817Z,7.60
2023-02-19T01:28:46.156Z,7.57
2023-02-19T01:31:16.807Z,7.59
2023-02-19T01:33:45.777Z,7.45
2023-02-19T01:36:14.327Z,7.55
2023-02-19T01:38:42.207Z,7.40
2023-02-19T01:41:12.581Z,7.43
2023-02-19T01:46:34.539Z,7.63
2023-02-19T01:49:06.960Z,7.64
2023-02-19T01:51:36.750Z,7.57
2023-02-19T01:54:08.754Z,7.48
2023-02-19T01:56:38.528Z,7.56
2023-02-19T01:59:07.564Z,7.65
2023-02-19T02:01:39.015Z,7.65
2023-02-19T02:04:09.193Z,7.65
2023-02-19T02:06:43.950Z,7.66
2023-02-19T02:09:12.918Z,7.63
2023-02-19T02:11:44.500Z,7.62
2023-02-19T02:14:12.983Z,7.60
2023-02-19T02:16:54.766Z,7.66
2023-02-19T02:19:42.673Z,7.77
2023-02-19T02:22:17.153Z,7.99
2023-02-19T02:25:29.299Z,8.07
2023-02-19T02:28:10.571Z,8.01
2023-02-19T02:30:43.860Z,7.88
2023-02-19T02:33:17.541Z,7.81
2023-02-19T02:35:50.281Z,7.80
2023-02-19T02:38:20.391Z,7.78
2023-02-19T02:40:48.745Z,7.77
2023-02-19T02:43:16.339Z,7.82
2023-02-19T02:45:45.908Z,7.80
2023-02-19T02:48:33.485Z,7.80
2023-02-19T02:51:09.740Z,7.74
2023-02-19T02:53:41.645Z,7.71
2023-02-19T02:56:11.240Z,7.74
2023-02-19T02:58:39.587Z,7.81
2023-02-19T03:01:12.755Z,7.92
2023-02-19T03:03:43.872Z,8.07
2023-02-19T03:06:15.656Z,8.05
2023-02-19T03:08:48.282Z,8.02
2023-02-19T03:11:16.606Z,7.97
2023-02-19T03:13:44.159Z,7.89
2023-02-19T03:16:18.027Z,7.77
2023-02-19T03:18:49.621Z,7.68
2023-02-19T03:21:21.059Z,7.47
2023-02-19T03:23:50.102Z,7.50
2023-02-19T03:26:20.036Z,7.62
2023-02-19T03:28:50.352Z,7.74
2023-02-19T03:31:24.054Z,7.61
2023-02-19T03:33:55.629Z,7.59
2023-02-19T03:36:31.139Z,7.53
2023-02-19T03:39:02.831Z,7.47
2023-02-19T03:41:36.336Z,7.50
2023-02-19T03:44:11.059Z,7.48
2023-02-19T03:46:48.685Z,7.47
2023-02-19T03:49:24.366Z,7.41
2023-02-19T03:51:57.964Z,7.48
2023-02-19T03:54:35.299Z,7.51
2023-02-19T03:57:10.298Z,7.62
2023-02-19T03:59:43.480Z,7.72
2023-02-19T04:02:16.987Z,7.72
2023-02-19T04:04:47.723Z,7.74
2023-02-19T04:07:15.965Z,7.69
2023-02-19T04:09:47.011Z,7.76
2023-02-19T04:12:16.647Z,7.58
2023-02-19T04:14:49.190Z,7.59
2023-02-19T04:17:24.435Z,7.61
2023-02-19T04:19:54.834Z,7.63
2023-02-19T04:22:23.452Z,7.66
2023-02-19T04:24:53.807Z,7.58
2023-02-19T04:27:21.839Z,7.59
2023-02-19T04:29:49.480Z,7.61
2023-02-19T04:32:18.941Z,7.77
2023-02-19T04:34:46.520Z,7.80
2023-02-19T04:37:14.463Z,7.88
2023-02-19T04:39:42.009Z,7.89
2023-02-19T04:42:11.185Z,7.82
2023-02-19T04:44:38.648Z,7.83
2023-02-19T04:47:06.896Z,7.79
2023-02-19T04:49:35.913Z,7.82
2023-02-19T04:52:04.240Z,7.87
2023-02-19T04:54:31.816Z,7.90
2023-02-19T04:56:59.738Z,7.75
2023-02-19T04:59:27.734Z,7.76
2023-02-19T05:01:55.781Z,7.82
2023-02-19T05:04:23.462Z,7.85
2023-02-19T05:06:53.028Z,7.90
2023-02-19T05:09:20.635Z,7.94
2023-02-19T05:11:48.699Z,7.96
2023-02-19T05:14:16.278Z,8.02
2023-02-19T05:16:44.237Z,8.01
2023-02-19T05:19:12.375Z,8.09
2023-02-19T05:21:40.691Z,8.05
2023-02-19T05:24:10.041Z,8.14
2023-02-19T05:26:38.197Z,8.09
2023-02-19T05:29:05.938Z,8.05
2023-02-19T05:31:34.159Z,7.85
2023-02-19T05:34:01.893Z,7.84
2023-02-19T05:36:30.544Z,7.99
2023-02-19T05:38:58.550Z,8.12
2023-02-19T05:41:29.681Z,8.10
2023-02-19T05:43:57.770Z,8.21
2023-02-19T05:46:28.310Z,8.16
2023-02-19T05:48:56.011Z,8.15
2023-02-19T05:51:25.665Z,8.29
2023-02-19T05:53:53.615Z,8.46
2023-02-19T05:56:31.042Z,8.56
2023-02-19T05:58:59.478Z,8.53
2023-02-19T06:01:29.310Z,8.60
2023-02-19T06:03:58.051Z,8.53
2023-02-19T06:06:27.303Z,8.54
2023-02-19T06:08:55.365Z,8.61
2023-02-19T06:11:24.716Z,8.68
2023-02-19T06:13:53.831Z,8.65
2023-02-19T06:16:24.700Z,8.31
2023-02-19T06:18:52.666Z,8.31
2023-02-19T06:21:20.909Z,8.18
2023-02-19T06:23:48.496Z,7.98
2023-02-19T06:26:18.507Z,8.03
2023-02-19T06:28:47.349Z,8.05
2023-02-19T06:31:18.809Z,7.85
2023-02-19T06:33:46.579Z,7.81
2023-02-19T06:36:16.842Z,7.74
2023-02-19T06:38:44.736Z,7.74
2023-02-19T06:41:14.039Z,7.78
2023-02-19T06:43:42.019Z,7.78
2023-02-19T06:46:12.863Z,7.89
2023-02-19T06:48:43.668Z,7.86
2023-02-19T06:51:13.439Z,7.82
2023-02-19T06:53:40.972Z,7.90
2023-02-19T06:56:22.780Z,7.98
2023-02-19T06:58:50.499Z,7.99
2023-02-19T07:01:18.561Z,7.85
2023-02-19T07:03:47.685Z,7.78
2023-02-19T07:06:16.026Z,7.72
2023-02-19T07:08:43.553Z,7.59
2023-02-19T07:11:11.951Z,7.31
2023-02-19T07:13:39.612Z,7.10
2023-02-19T07:16:09.639Z,7.11
2023-02-19T07:18:37.936Z,7.03
2023-02-19T07:21:09.542Z,7.16
2023-02-19T07:23:37.425Z,7.12
2023-02-19T07:26:08.645Z,6.96
2023-02-19T07:28:36.141Z,6.65
2023-02-19T07:31:05.336Z,6.45
2023-02-19T07:33:32.897Z,6.24
2023-02-19T07:36:01.010Z,6.22
2023-02-19T07:38:30.082Z,6.24
2023-02-19T07:40:59.688Z,6.26
2023-02-19T07:43:30.822Z,6.32
2023-02-19T07:45:58.943Z,6.22
2023-02-19T07:48:26.969Z,6.20
2023-02-19T07:50:59.210Z,6.33
2023-02-19T07:53:29.750Z,6.22
2023-02-19T07:56:12.024Z,6.10
2023-02-19T07:58:41.115Z,5.98
2023-02-19T08:01:11.369Z,6.18
2023-02-19T08:03:39.574Z,6.14
2023-02-19T08:06:08.580Z,6.10
2023-02-19T08:08:38.203Z,5.68
2023-02-19T08:11:07.351Z,5.53
2023-02-19T08:13:35.050Z,5.43
2023-02-19T08:16:20.075Z,5.20
2023-02-19T08:18:51.905Z,5.07
2023-02-19T08:21:20.020Z,5.20
2023-02-19T08:23:50.994Z,5.29
2023-02-19T08:26:19.401Z,5.30
2023-02-19T08:28:48.255Z,5.10
2023-02-19T08:31:16.769Z,5.12
2023-02-19T08:33:44.406Z,5.19
2023-02-19T08:36:12.864Z,5.07
2023-02-19T08:38:40.564Z,5.10
2023-02-19T08:41:12.406Z,5.13
2023-02-19T08:43:40.818Z,5.22
2023-02-19T08:46:12.210Z,5.06
2023-02-19T08:48:40.856Z,5.10
2023-02-19T08:51:11.850Z,5.07
2023-02-19T08:53:40.775Z,5.02
2023-02-19T08:56:13.158Z,5.05
2023-02-19T08:58:40.947Z,4.99
2023-02-19T09:01:11.225Z,5.01
2023-02-19T09:03:39.261Z,4.94
2023-02-19T09:06:08.179Z,4.96
2023-02-19T09:08:35.807Z,5.15
2023-02-19T09:11:07.174Z,5.17
2023-02-19T09:13:36.302Z,5.21
2023-02-19T09:16:05.427Z,5.20
2023-02-19T09:18:33.479Z,5.17
2023-02-19T09:21:02.198Z,5.16
2023-02-19T09:23:29.872Z,5.18
2023-02-19T09:26:01.684Z,5.07
2023-02-19T09:28:29.361Z,5.02
2023-02-19T09:31:04.202Z,5.21
2023-02-19T09:33:31.839Z,5.34
2023-02-19T09:35:59.950Z,5.30
2023-02-19T09:38:27.663Z,5.27
2023-02-19T09:40:57.446Z,5.27
2023-02-19T09:43:28.600Z,5.46
2023-02-19T09:46:03.741Z,5.42
2023-02-19T09:48:32.140Z,5.54
2023-02-19T09:51:01.585Z,5.60
2023-02-19T09:53:36.643Z,5.66
2023-02-19T09:56:05.846Z,5.65
2023-02-19T09:58:36.352Z,5.69
2023-02-19T10:01:10.971Z,5.61
2023-02-19T10:03:40.204Z,5.51
2023-02-19T10:06:14.942Z,5.47
2023-02-19T10:08:45.631Z,5.31
2023-02-19T10:11:14.694Z,5.16
2023-02-19T10:13:45.787Z,5.24
2023-02-19T10:16:19.418Z,5.25
2023-02-19T10:18:47.479Z,5.10
2023-02-19T10:21:22.698Z,5.23
2023-02-19T10:23:53.698Z,5.33
2023-02-19T10:26:23.395Z,5.17
2023-02-19T10:28:51.477Z,5.29
2023-02-19T10:31:23.820Z,5.29
2023-02-19T10:33:53.393Z,5.39
2023-02-19T10:36:33.177Z,5.48
2023-02-19T10:39:02.275Z,5.56
2023-02-19T10:41:32.896Z,5.53
2023-02-19T10:44:07.964Z,5.73
2023-02-19T10:46:43.746Z,5.71
2023-02-19T10:49:22.049Z,5.99
2023-02-19T10:51:52.339Z,6.08
2023-02-19T10:54:24.462Z,6.15
2023-02-19T10:56:52.343Z,5.99
2023-02-19T10:59:25.747Z,5.96
2023-02-19T11:01:56.514Z,5.96
2023-02-19T11:04:25.824Z,5.94
2023-02-19T11:06:54.674Z,5.91
2023-02-19T11:09:29.323Z,5.99
2023-02-19T11:11:58.156Z,6.03
2023-02-19T11:14:27.393Z,5.79
2023-02-19T11:16:59.105Z,5.79
2023-02-19T11:19:31.141Z,5.95
2023-02-19T11:21:59.852Z,6.13
2023-02-19T11:24:32.111Z,6.55
2023-02-19T11:27:00.848Z,6.65
2023-02-19T11:29:29.729Z,6.73
2023-02-19T11:32:22.320Z,6.45
2023-02-19T11:34:49.951Z,6.30
2023-02-19T11:37:19.944Z,6.19
2023-02-19T11:39:49.261Z,6.33
2023-02-19T11:42:37.456Z,6.28
2023-02-19T11:45:17.522Z,6.19
2023-02-19T11:48:16.278Z,6.25
2023-02-19T11:50:58.150Z,6.28
2023-02-19T11:53:30.936Z,6.18
2023-02-19T11:56:19.894Z,6.15
2023-02-19T11:59:00.779Z,5.96
2023-02-19T12:01:58.549Z,5.86
2023-02-19T12:04:47.328Z,5.83
2023-02-19T12:07:30.756Z,5.78
2023-02-19T12:10:08.301Z,5.69
2023-02-19T12:16:05.842Z,6.17
2023-02-19T12:18:55.406Z,6.40
2023-02-19T12:21:41.158Z,6.88
2023-02-19T12:24:28.982Z,6.86
2023-02-19T12:27:14.394Z,7.09
2023-02-19T12:29:56.252Z,7.21
2023-02-19T12:32:50.277Z,6.98
2023-02-19T12:38:34.038Z,6.96
2023-02-19T12:41:27.642Z,7.06
2023-02-19T12:44:02.517Z,7.02
2023-02-19T12:46:37.327Z,7.03
2023-02-19T12:49:12.307Z,7.00
2023-02-19T12:51:45.447Z,6.67
2023-02-19T12:54:19.421Z,6.67
2023-02-19T12:56:55.281Z,6.65
2023-02-19T12:59:28.253Z,6.97
2023-02-19T13:02:01.918Z,6.79
2023-02-19T13:04:42.840Z,6.62
2023-02-19T13:07:14.674Z,6.51
2023-02-19T13:09:49.081Z,6.54
2023-02-19T13:12:26.072Z,6.58
2023-02-19T13:14:58.802Z,6.71
2023-02-19T13:17:32.056Z,6.85
2023-02-19T13:20:08.372Z,6.86
2023-02-19T13:22:41.665Z,6.74
2023-02-19T13:25:11.908Z,6.69
2023-02-19T13:28:04.202Z,6.57
2023-02-19T13:31:01.897Z,6.79
2023-02-19T13:33:42.424Z,6.55
2023-02-19T13:36:19.395Z,6.57
2023-02-19T13:38:49.356Z,6.68
2023-02-19T13:41:20.609Z,6.92
2023-02-19T13:43:58.501Z,6.71
2023-02-19T13:46:35.072Z,7.06
2023-02-19T13:49:25.508Z,7.17
2023-02-19T13:51:54.355Z,7.10
2023-02-19T13:54:24.605Z,7.06
2023-02-19T13:57:20.556Z,6.99
2023-02-19T13:59:50.148Z,6.87
2023-02-19T14:02:31.288Z,6.55
2023-02-19T14:05:01.871Z,6.41
2023-02-19T14:08:02.188Z,6.49
2023-02-19T14:10:57.335Z,6.37
2023-02-19T14:14:01.470Z,6.30
2023-02-19T14:16:54.882Z,6.36
2023-02-19T14:19:51.473Z,6.12
2023-02-19T14:22:47.888Z,5.88
2023-02-19T14:25:28.651Z,5.82
2023-02-19T14:28:02.196Z,5.91
2023-02-19T14:30:32.675Z,5.93
2023-02-19T14:33:11.678Z,5.95
2023-02-19T14:35:44.002Z,5.83
2023-02-19T14:38:20.507Z,5.82
2023-02-19T14:40:50.583Z,6.09
2023-02-19T14:43:21.155Z,6.30
2023-02-19T14:45:53.149Z,6.42
2023-02-19T14:48:27.150Z,6.23
2023-02-19T14:51:00.891Z,6.08
2023-02-19T14:53:30.108Z,5.95
2023-02-19T14:56:00.124Z,5.96
2023-02-19T14:58:31.857Z,5.90
2023-02-19T15:00:59.959Z,5.92
2023-02-19T15:03:37.760Z,6.12
2023-02-19T15:06:12.835Z,6.15
2023-02-19T15:08:45.422Z,6.14
2023-02-19T15:11:20.739Z,6.06
2023-02-19T15:13:51.464Z,6.12
2023-02-19T15:16:21.289Z,5.97
2023-02-19T15:18:51.864Z,5.96
2023-02-19T15:21:24.442Z,5.90
2023-02-19T15:23:55.076Z,5.95
2023-02-19T15:26:27.459Z,5.81
2023-02-19T15:28:59.703Z,5.74
2023-02-19T15:31:27.391Z,5.85
2023-02-19T15:33:56.988Z,5.75
2023-02-19T15:36:31.258Z,5.63
2023-02-19T15:39:01.200Z,5.54
2023-02-19T15:41:34.364Z,5.61
2023-02-19T15:44:19.195Z,5.52
2023-02-19T15:46:48.395Z,5.46
2023-02-19T15:49:22.197Z,5.41
2023-02-19T15:51:55.118Z,5.42
2023-02-19T15:54:27.628Z,5.20
2023-02-19T15:56:58.846Z,5.15
2023-02-19T15:59:34.209Z,5.12
2023-02-19T16:02:03.038Z,5.18
2023-02-19T16:04:34.632Z,5.14
2023-02-19T16:07:03.372Z,5.17
2023-02-19T16:09:37.350Z,4.96
2023-02-19T16:12:20.305Z,4.80
2023-02-19T16:14:50.728Z,4.78
2023-02-19T16:17:20.751Z,4.79
2023-02-19T16:19:54.659Z,4.78
2023-02-19T16:22:25.470Z,4.82
2023-02-19T16:24:55.747Z,4.72
2023-02-19T16:27:30.463Z,4.62
2023-02-19T16:29:59.153Z,4.54
2023-02-19T16:32:27.530Z,4.48
2023-02-19T16:34:56.605Z,4.51
2023-02-19T16:37:36.732Z,4.40
2023-02-19T16:41:00.902Z,4.47
2023-02-19T16:43:31.630Z,4.46
2023-02-19T16:46:00.278Z,4.37
2023-02-19T16:48:28.846Z,4.32
2023-02-19T16:51:02.203Z,4.23
2023-02-19T16:53:31.369Z,4.12
2023-02-19T16:55:59.119Z,3.99
2023-02-19T16:58:27.623Z,4.02
2023-02-19T17:00:55.450Z,4.05
2023-02-19T17:03:25.903Z,4.06
2023-02-19T17:05:53.880Z,4.04
2023-02-19T17:08:41.539Z,4.05
2023-02-19T17:11:12.600Z,4.09
2023-02-19T17:13:41.912Z,4.24
2023-02-19T17:16:17.144Z,4.25
2023-02-19T17:18:45.380Z,4.17
2023-02-19T17:21:15.943Z,4.36
2023-02-19T17:23:45.710Z,4.25
2023-02-19T17:26:14.877Z,4.10
2023-02-19T17:28:42.910Z,4.12
2023-02-19T17:31:11.557Z,4.18
2023-02-19T17:33:39.973Z,4.26
2023-02-19T17:36:08.312Z,4.17
2023-02-19T17:38:36.409Z,4.07
2023-02-19T17:41:05.870Z,4.13
2023-02-19T17:43:34.251Z,4.18
2023-02-19T17:46:02.078Z,4.15
2023-02-19T17:48:30.532Z,4.13
2023-02-19T17:50:58.307Z,4.11
2023-02-19T17:53:26.455Z,4.14
2023-02-19T17:55:54.186Z,4.05
2023-02-19T17:58:23.798Z,4.07
2023-02-19T18:00:51.570Z,4.06
2023-02-19T18:03:19.965Z,3.88
2023-02-19T18:05:47.833Z,3.79
2023-02-19T18:08:16.376Z,3.68
2023-02-19T18:10:43.981Z,3.66
2023-02-19T18:13:11.943Z,3.73
2023-02-19T18:15:41.418Z,3.75
2023-02-19T18:18:09.418Z,3.67
2023-02-19T18:20:37.127Z,3.54
2023-02-19T18:23:05.552Z,3.63
2023-02-19T18:25:33.202Z,3.65
2023-02-19T18:28:01.308Z,3.59
2023-02-19T18:30:29.219Z,3.67
2023-02-19T18:32:59.298Z,3.67
2023-02-19T18:35:27.032Z,3.69
2023-02-19T18:37:55.516Z,3.77
2023-02-19T18:40:24.259Z,3.74
2023-02-19T18:42:52.817Z,3.76
2023-02-19T18:45:20.472Z,3.94
2023-02-19T18:47:49.372Z,3.91
2023-02-19T18:50:20.172Z,3.83
2023-02-19T18:52:48.231Z,3.72
2023-02-19T18:55:15.949Z,3.76
2023-02-19T18:57:44.198Z,3.69
2023-02-19T19:00:17.741Z,3.60
2023-02-19T19:02:49.758Z,3.60
2023-02-19T19:05:21.505Z,3.66
2023-02-19T19:07:49.892Z,3.58
2023-02-19T19:10:18.376Z,3.60
2023-02-19T19:12:46.896Z,3.44
2023-02-19T19:15:17.978Z,3.33
2023-02-19T19:17:47.038Z,3.32
2023-02-19T19:20:16.267Z,3.34
2023-02-19T19:22:45.860Z,3.22
2023-02-19T19:25:13.391Z,3.27
2023-02-19T19:27:43.263Z,3.18
2023-02-19T19:30:11.838Z,3.06
2023-02-19T19:32:40.180Z,3.07
2023-02-19T19:35:08.464Z,3.05
2023-02-19T19:37:37.036Z,3.12
2023-02-19T19:40:07.639Z,3.06
2023-02-19T19:42:35.646Z,2.99
2023-02-19T19:45:03.612Z,3.02
2023-02-19T19:47:31.883Z,3.04
2023-02-19T19:49:59.778Z,3.22
2023-02-19T19:52:28.080Z,3.11
2023-02-19T19:54:55.706Z,3.08
2023-02-19T19:57:25.713Z,3.00
2023-02-19T19:59:53.473Z,3.10
2023-02-19T20:02:21.791Z,3.20
2023-02-19T20:04:49.533Z,3.12
2023-02-19T20:07:17.625Z,3.12
2023-02-19T20:09:48.304Z,3.14
2023-02-19T20:12:16.676Z,2.90
2023-02-19T20:14:47.021Z,2.86
2023-02-19T20:17:15.381Z,2.93
2023-02-19T20:19:42.985Z,2.91
2023-02-19T20:22:11.021Z,2.85
2023-02-19T20:24:39.312Z,2.81
2023-02-19T20:27:07.866Z,2.77
2023-02-19T20:29:35.859Z,2.66
2023-02-19T20:32:05.903Z,2.51
2023-02-19T20:34:34.107Z,2.56
2023-02-19T20:37:02.281Z,2.58
2023-02-19T20:39:30.464Z,2.56
2023-02-19T20:41:59.783Z,2.66
2023-02-19T20:44:28.765Z,2.60
2023-02-19T20:46:58.333Z,2.55
2023-02-19T20:49:29.413Z,2.47
2023-02-19T20:51:59.395Z,2.44
2023-02-19T20:54:29.191Z,2.51
2023-02-19T20:56:59.965Z,2.44
2023-02-19T20:59:29.521Z,2.36
2023-02-19T21:01:58.602Z,2.37
2023-02-19T21:04:27.978Z,2.49
2023-02-19T21:06:56.888Z,2.43
2023-02-19T21:09:24.994Z,2.32
2023-02-19T21:11:53.392Z,2.32
2023-02-19T21:14:20.978Z,2.36
2023-02-19T21:16:49.152Z,2.46
2023-02-19T21:19:17.099Z,2.43
2023-02-19T21:21:47.471Z,2.39
2023-02-19T21:24:15.740Z,2.36
2023-02-19T21:26:44.371Z,2.51
2023-02-19T21:29:16.503Z,2.41
2023-02-19T21:31:46.185Z,2.39
2023-02-19T21:34:15.642Z,2.35
2023-02-19T21:36:44.298Z,2.35
2023-02-19T21:39:15.909Z,2.40
2023-02-19T21:41:44.179Z,2.44
2023-02-19T21:44:12.127Z,2.29
2023-02-19T21:46:40.449Z,2.15
2023-02-19T21:49:08.281Z,2.07
2023-02-19T21:51:37.798Z,2.05
2023-02-19T21:54:07.162Z,2.15
2023-02-19T21:56:37.618Z,2.19
2023-02-19T21:59:05.640Z,2.30
2023-02-19T22:01:36.446Z,2.50
2023-02-19T22:04:04.475Z,2.48
2023-02-19T22:06:32.919Z,2.31
2023-02-19T22:09:01.710Z,2.14
2023-02-19T22:11:30.217Z,2.16
2023-02-19T22:13:59.552Z,2.04
2023-02-19T22:16:27.891Z,1.96
2023-02-19T22:18:57.486Z,2.08
2023-02-19T22:21:27.444Z,2.07
2023-02-19T22:23:55.788Z,1.99
2023-02-19T22:26:25.820Z,1.95
2023-02-19T22:28:54.490Z,1.96
2023-02-19T22:31:25.668Z,2.00
2023-02-19T22:33:53.993Z,1.96
2023-02-19T22:36:23.952Z,1.80
2023-02-19T22:38:52.108Z,1.79
2023-02-19T22:41:20.984Z,1.76
2023-02-19T22:43:49.511Z,1.75
2023-02-19T22:46:19.639Z,1.82
2023-02-19T22:48:49.461Z,1.89
2023-02-19T22:51:19.820Z,1.86
2023-02-19T22:53:48.635Z,1.86
2023-02-19T22:56:18.390Z,1.76
2023-02-19T22:58:46.311Z,1.82
2023-02-19T23:01:15.413Z,1.71
2023-02-19T23:03:49.836Z,1.71
2023-02-19T23:06:21.937Z,1.77
2023-02-19T23:08:49.931Z,1.80
2023-02-19T23:11:21.515Z,1.84
2023-02-19T23:13:49.708Z,1.81
2023-02-19T23:16:18.080Z,1.95
2023-02-19T23:18:46.023Z,1.89
2023-02-19T23:21:15.944Z,1.76
2023-02-19T23:23:44.735Z,1.80
2023-02-19T23:26:14.713Z,1.78
2023-02-19T23:28:44.078Z,1.76
2023-02-19T23:31:12.874Z,1.61
2023-02-19T23:33:40.953Z,1.60
2023-02-19T23:36:10.065Z,1.58
2023-02-19T23:38:43.475Z,1.68
2023-02-19T23:41:13.342Z,1.65
2023-02-19T23:43:41.276Z,1.53
2023-02-19T23:46:09.658Z,1.47
2023-02-19T23:48:37.417Z,1.52
2023-02-19T23:51:06.819Z,1.45
2023-02-19T23:53:35.706Z,1.46
2023-02-19T23:56:06.199Z,1.59
2023-02-19T23:58:33.934Z,1.69
